sensor_id;sensor_type;location;lat;lon;timestamp;temperature;humidity
56729;DHT22;42612;52.232;7.560;2023-02-15T00:02:14;9.20;54.00
56729;DHT22;42612;52.232;7.560;2023-02-15T00:04:39;9.20;54.00
56729;DHT22;42612;52.232;7.560;2023-02-15T00:07:13;9.30;54.20
56729;DHT22;42612;52.232;7.560;2023-02-15T00:09:39;9.30;54.00
56729;DHT22;42612;52.232;7.560;2023-02-15T00:12:05;9.30;54.10
56729;DHT22;42612;52.232;7.560;2023-02-15T00:14:30;9.30;54.00
56729;DHT22;42612;52.232;7.560;2023-02-15T00:16:56;9.30;53.90
56729;DHT22;42612;52.232;7.560;2023-02-15T00:19:25;9.30;54.00
56729;DHT22;42612;52.232;7.560;2023-02-15T00:21:51;9.30;54.10
56729;DHT22;42612;52.232;7.560;2023-02-15T00:24:18;9.30;54.80
56729;DHT22;42612;52.232;7.560;2023-02-15T00:26:44;9.20;54.10
56729;DHT22;42612;52.232;7.560;2023-02-15T00:29:12;9.30;54.50
56729;DHT22;42612;52.232;7.560;2023-02-15T00:31:38;9.30;54.00
56729;DHT22;42612;52.232;7.560;2023-02-15T00:34:12;9.30;54.20
56729;DHT22;42612;52.232;7.560;2023-02-15T00:36:44;9.30;53.50
56729;DHT22;42612;52.232;7.560;2023-02-15T00:39:10;9.30;53.40
56729;DHT22;42612;52.232;7.560;2023-02-15T00:41:37;9.20;53.40
56729;DHT22;42612;52.232;7.560;2023-02-15T00:44:03;9.20;53.50
56729;DHT22;42612;52.232;7.560;2023-02-15T00:46:29;9.20;53.40
56729;DHT22;42612;52.232;7.560;2023-02-15T00:48:55;9.10;53.50
56729;DHT22;42612;52.232;7.560;2023-02-15T00:51:21;9.10;53.80
56729;DHT22;42612;52.232;7.560;2023-02-15T00:53:48;9.10;54.00
56729;DHT22;42612;52.232;7.560;2023-02-15T00:56:14;9.00;54.10
56729;DHT22;42612;52.232;7.560;2023-02-15T00:58:40;9.00;54.30
56729;DHT22;42612;52.232;7.560;2023-02-15T01:01:09;9.10;54.60
56729;DHT22;42612;52.232;7.560;2023-02-15T01:03:36;9.10;54.90
56729;DHT22;42612;52.232;7.560;2023-02-15T01:06:02;9.00;55.00
56729;DHT22;42612;52.232;7.560;2023-02-15T01:08:29;9.10;55.20
56729;DHT22;42612;52.232;7.560;2023-02-15T01:10:55;9.10;55.30
56729;DHT22;42612;52.232;7.560;2023-02-15T01:13:21;9.10;55.30
56729;DHT22;42612;52.232;7.560;2023-02-15T01:15:53;9.20;55.20
56729;DHT22;42612;52.232;7.560;2023-02-15T01:18:20;9.20;55.50
56729;DHT22;42612;52.232;7.560;2023-02-15T01:20:46;9.20;55.30
56729;DHT22;42612;52.232;7.560;2023-02-15T01:23:13;9.20;55.30
56729;DHT22;42612;52.232;7.560;2023-02-15T01:25:38;9.20;55.30
56729;DHT22;42612;52.232;7.560;2023-02-15T01:28:04;9.30;55.40
56729;DHT22;42612;52.232;7.560;2023-02-15T01:30:31;9.30;55.40
56729;DHT22;42612;52.232;7.560;2023-02-15T01:32:58;9.30;55.60
56729;DHT22;42612;52.232;7.560;2023-02-15T01:35:24;9.30;55.50
56729;DHT22;42612;52.232;7.560;2023-02-15T01:37:49;9.40;55.60
56729;DHT22;42612;52.232;7.560;2023-02-15T01:40:16;9.40;55.60
56729;DHT22;42612;52.232;7.560;2023-02-15T01:42:43;9.40;55.90
56729;DHT22;42612;52.232;7.560;2023-02-15T01:45:20;9.40;55.70
56729;DHT22;42612;52.232;7.560;2023-02-15T01:50:20;9.50;55.70
56729;DHT22;42612;52.232;7.560;2023-02-15T01:55:43;9.50;55.90
56729;DHT22;42612;52.232;7.560;2023-02-15T01:58:31;9.50;55.80
56729;DHT22;42612;52.232;7.560;2023-02-15T02:00:59;9.50;55.50
56729;DHT22;42612;52.232;7.560;2023-02-15T02:06:39;9.50;55.40
56729;DHT22;42612;52.232;7.560;2023-02-15T02:09:04;9.50;55.10
56729;DHT22;42612;52.232;7.560;2023-02-15T02:11:30;9.50;54.80
56729;DHT22;42612;52.232;7.560;2023-02-15T02:13:57;9.50;54.40
56729;DHT22;42612;52.232;7.560;2023-02-15T02:16:42;9.40;54.30
56729;DHT22;42612;52.232;7.560;2023-02-15T02:19:21;9.40;54.30
56729;DHT22;42612;52.232;7.560;2023-02-15T02:34:05;9.30;55.20
56729;DHT22;42612;52.232;7.560;2023-02-15T02:37:03;9.30;56.00
56729;DHT22;42612;52.232;7.560;2023-02-15T02:42:21;9.30;55.20
56729;DHT22;42612;52.232;7.560;2023-02-15T02:45:12;9.30;55.20
56729;DHT22;42612;52.232;7.560;2023-02-15T02:48:05;9.20;55.20
56729;DHT22;42612;52.232;7.560;2023-02-15T02:50:39;9.30;55.00
56729;DHT22;42612;52.232;7.560;2023-02-15T02:53:06;9.20;54.70
56729;DHT22;42612;52.232;7.560;2023-02-15T03:01:12;9.10;55.50
56729;DHT22;42612;52.232;7.560;2023-02-15T03:03:49;9.10;54.80
56729;DHT22;42612;52.232;7.560;2023-02-15T03:06:32;9.10;54.80
56729;DHT22;42612;52.232;7.560;2023-02-15T03:09:11;9.00;54.90
56729;DHT22;42612;52.232;7.560;2023-02-15T03:11:47;9.00;54.90
56729;DHT22;42612;52.232;7.560;2023-02-15T03:14:15;9.00;54.80
56729;DHT22;42612;52.232;7.560;2023-02-15T03:16:43;9.00;54.70
56729;DHT22;42612;52.232;7.560;2023-02-15T03:19:15;9.00;54.50
56729;DHT22;42612;52.232;7.560;2023-02-15T03:21:50;9.00;54.40
56729;DHT22;42612;52.232;7.560;2023-02-15T03:24:34;8.90;54.40
56729;DHT22;42612;52.232;7.560;2023-02-15T03:27:05;8.90;54.70
56729;DHT22;42612;52.232;7.560;2023-02-15T03:29:33;8.90;54.60
56729;DHT22;42612;52.232;7.560;2023-02-15T03:32:03;8.90;54.70
56729;DHT22;42612;52.232;7.560;2023-02-15T03:34:31;8.80;54.70
56729;DHT22;42612;52.232;7.560;2023-02-15T03:37:04;8.90;54.40
56729;DHT22;42612;52.232;7.560;2023-02-15T03:39:56;8.80;53.80
56729;DHT22;42612;52.232;7.560;2023-02-15T03:42:45;8.80;53.80
56729;DHT22;42612;52.232;7.560;2023-02-15T03:45:16;8.70;53.90
56729;DHT22;42612;52.232;7.560;2023-02-15T03:47:49;8.70;53.80
56729;DHT22;42612;52.232;7.560;2023-02-15T03:50:20;8.70;53.80
56729;DHT22;42612;52.232;7.560;2023-02-15T03:53:10;8.60;53.80
56729;DHT22;42612;52.232;7.560;2023-02-15T03:55:38;8.60;53.90
56729;DHT22;42612;52.232;7.560;2023-02-15T03:58:04;8.60;54.20
56729;DHT22;42612;52.232;7.560;2023-02-15T04:00:55;8.50;54.50
56729;DHT22;42612;52.232;7.560;2023-02-15T04:03:47;8.50;54.60
56729;DHT22;42612;52.232;7.560;2023-02-15T04:06:18;8.50;55.20
56729;DHT22;42612;52.232;7.560;2023-02-15T04:08:44;8.50;54.40
56729;DHT22;42612;52.232;7.560;2023-02-15T04:11:28;8.50;54.50
56729;DHT22;42612;52.232;7.560;2023-02-15T04:13:53;8.40;54.50
56729;DHT22;42612;52.232;7.560;2023-02-15T04:16:23;8.50;54.70
56729;DHT22;42612;52.232;7.560;2023-02-15T04:18:49;8.40;54.80
56729;DHT22;42612;52.232;7.560;2023-02-15T04:21:33;8.50;54.90
56729;DHT22;42612;52.232;7.560;2023-02-15T04:24:18;8.50;54.90
56729;DHT22;42612;52.232;7.560;2023-02-15T04:27:04;8.40;55.50
56729;DHT22;42612;52.232;7.560;2023-02-15T04:29:31;8.50;54.70
56729;DHT22;42612;52.232;7.560;2023-02-15T04:31:59;8.40;54.60
56729;DHT22;42612;52.232;7.560;2023-02-15T04:34:25;8.50;54.50
56729;DHT22;42612;52.232;7.560;2023-02-15T04:36:51;8.40;54.30
56729;DHT22;42612;52.232;7.560;2023-02-15T04:39:18;8.40;54.30
56729;DHT22;42612;52.232;7.560;2023-02-15T04:41:44;8.40;54.50
56729;DHT22;42612;52.232;7.560;2023-02-15T04:44:10;8.40;54.60
56729;DHT22;42612;52.232;7.560;2023-02-15T04:46:36;8.40;54.70
56729;DHT22;42612;52.232;7.560;2023-02-15T04:49:01;8.40;54.80
56729;DHT22;42612;52.232;7.560;2023-02-15T04:51:28;8.40;54.70
56729;DHT22;42612;52.232;7.560;2023-02-15T04:53:54;8.40;54.70
56729;DHT22;42612;52.232;7.560;2023-02-15T04:56:20;8.40;54.60
56729;DHT22;42612;52.232;7.560;2023-02-15T04:58:46;8.40;54.30
56729;DHT22;42612;52.232;7.560;2023-02-15T05:01:12;8.30;54.00
56729;DHT22;42612;52.232;7.560;2023-02-15T05:03:38;8.30;54.00
56729;DHT22;42612;52.232;7.560;2023-02-15T05:06:04;8.30;54.00
56729;DHT22;42612;52.232;7.560;2023-02-15T05:08:30;8.30;54.20
56729;DHT22;42612;52.232;7.560;2023-02-15T05:10:57;8.20;54.30
56729;DHT22;42612;52.232;7.560;2023-02-15T05:13:23;8.20;54.50
56729;DHT22;42612;52.232;7.560;2023-02-15T05:15:49;8.20;54.60
56729;DHT22;42612;52.232;7.560;2023-02-15T05:18:18;8.20;54.70
56729;DHT22;42612;52.232;7.560;2023-02-15T05:20:45;8.20;54.70
56729;DHT22;42612;52.232;7.560;2023-02-15T05:23:10;8.20;54.60
56729;DHT22;42612;52.232;7.560;2023-02-15T05:25:36;8.20;54.60
56729;DHT22;42612;52.232;7.560;2023-02-15T05:28:25;8.20;54.50
56729;DHT22;42612;52.232;7.560;2023-02-15T05:31:11;8.20;54.80
56729;DHT22;42612;52.232;7.560;2023-02-15T05:33:38;8.10;54.80
56729;DHT22;42612;52.232;7.560;2023-02-15T05:36:05;8.10;54.60
56729;DHT22;42612;52.232;7.560;2023-02-15T05:38:31;8.10;54.50
56729;DHT22;42612;52.232;7.560;2023-02-15T05:40:57;8.10;54.30
56729;DHT22;42612;52.232;7.560;2023-02-15T05:43:24;8.10;54.10
56729;DHT22;42612;52.232;7.560;2023-02-15T05:45:52;8.10;54.10
56729;DHT22;42612;52.232;7.560;2023-02-15T05:48:20;8.00;54.00
56729;DHT22;42612;52.232;7.560;2023-02-15T05:50:59;8.00;54.40
56729;DHT22;42612;52.232;7.560;2023-02-15T05:53:27;7.90;54.40
56729;DHT22;42612;52.232;7.560;2023-02-15T05:55:54;7.90;54.40
56729;DHT22;42612;52.232;7.560;2023-02-15T05:58:26;7.90;54.30
56729;DHT22;42612;52.232;7.560;2023-02-15T06:00:53;7.90;54.50
56729;DHT22;42612;52.232;7.560;2023-02-15T06:03:19;7.80;54.40
56729;DHT22;42612;52.232;7.560;2023-02-15T06:05:45;7.80;54.40
56729;DHT22;42612;52.232;7.560;2023-02-15T06:08:11;7.80;54.60
56729;DHT22;42612;52.232;7.560;2023-02-15T06:10:37;7.80;54.70
56729;DHT22;42612;52.232;7.560;2023-02-15T06:13:03;7.80;54.70
56729;DHT22;42612;52.232;7.560;2023-02-15T06:15:29;7.80;54.90
56729;DHT22;42612;52.232;7.560;2023-02-15T06:17:54;7.80;54.90
56729;DHT22;42612;52.232;7.560;2023-02-15T06:20:20;7.80;55.60
56729;DHT22;42612;52.232;7.560;2023-02-15T06:22:46;7.80;54.70
56729;DHT22;42612;52.232;7.560;2023-02-15T06:25:11;7.80;54.70
56729;DHT22;42612;52.232;7.560;2023-02-15T06:27:37;7.80;54.60
56729;DHT22;42612;52.232;7.560;2023-02-15T06:30:07;7.80;54.40
56729;DHT22;42612;52.232;7.560;2023-02-15T06:32:34;7.80;54.50
56729;DHT22;42612;52.232;7.560;2023-02-15T06:35:00;7.80;54.50
56729;DHT22;42612;52.232;7.560;2023-02-15T06:37:26;7.80;54.50
56729;DHT22;42612;52.232;7.560;2023-02-15T06:39:52;7.80;54.50
56729;DHT22;42612;52.232;7.560;2023-02-15T06:42:17;7.80;54.60
56729;DHT22;42612;52.232;7.560;2023-02-15T06:44:44;7.80;54.60
56729;DHT22;42612;52.232;7.560;2023-02-15T06:47:10;7.80;54.70
56729;DHT22;42612;52.232;7.560;2023-02-15T06:49:37;7.80;54.70
56729;DHT22;42612;52.232;7.560;2023-02-15T06:52:03;7.70;54.50
56729;DHT22;42612;52.232;7.560;2023-02-15T06:54:29;7.80;54.60
56729;DHT22;42612;52.232;7.560;2023-02-15T06:56:55;7.80;54.80
56729;DHT22;42612;52.232;7.560;2023-02-15T06:59:20;7.70;54.60
56729;DHT22;42612;52.232;7.560;2023-02-15T07:01:46;7.70;54.70
56729;DHT22;42612;52.232;7.560;2023-02-15T07:04:12;7.70;54.80
56729;DHT22;42612;52.232;7.560;2023-02-15T07:06:38;7.70;55.00
56729;DHT22;42612;52.232;7.560;2023-02-15T07:09:03;7.70;55.10
56729;DHT22;42612;52.232;7.560;2023-02-15T07:11:29;7.70;55.10
56729;DHT22;42612;52.232;7.560;2023-02-15T07:14:14;7.70;55.20
56729;DHT22;42612;52.232;7.560;2023-02-15T07:16:41;7.70;55.10
56729;DHT22;42612;52.232;7.560;2023-02-15T07:19:06;7.80;55.20
56729;DHT22;42612;52.232;7.560;2023-02-15T07:21:33;7.80;55.20
56729;DHT22;42612;52.232;7.560;2023-02-15T07:23:59;7.80;55.60
56729;DHT22;42612;52.232;7.560;2023-02-15T07:26:25;7.80;55.60
56729;DHT22;42612;52.232;7.560;2023-02-15T07:28:51;7.80;55.50
56729;DHT22;42612;52.232;7.560;2023-02-15T07:31:17;7.80;55.40
56729;DHT22;42612;52.232;7.560;2023-02-15T07:33:42;7.80;55.40
56729;DHT22;42612;52.232;7.560;2023-02-15T07:36:09;7.90;55.40
56729;DHT22;42612;52.232;7.560;2023-02-15T07:38:38;7.90;55.40
56729;DHT22;42612;52.232;7.560;2023-02-15T07:41:08;7.90;55.40
56729;DHT22;42612;52.232;7.560;2023-02-15T07:43:37;7.90;55.40
56729;DHT22;42612;52.232;7.560;2023-02-15T07:46:09;7.90;55.50
56729;DHT22;42612;52.232;7.560;2023-02-15T07:48:38;7.90;55.60
56729;DHT22;42612;52.232;7.560;2023-02-15T07:51:05;8.00;55.70
56729;DHT22;42612;52.232;7.560;2023-02-15T07:53:32;8.00;56.30
56729;DHT22;42612;52.232;7.560;2023-02-15T07:56:04;8.00;55.50
56729;DHT22;42612;52.232;7.560;2023-02-15T07:58:34;8.00;55.70
56729;DHT22;42612;52.232;7.560;2023-02-15T08:01:30;8.00;55.80
56729;DHT22;42612;52.232;7.560;2023-02-15T08:04:01;8.00;55.70
56729;DHT22;42612;52.232;7.560;2023-02-15T08:06:29;8.10;55.70
56729;DHT22;42612;52.232;7.560;2023-02-15T08:08:56;8.10;55.80
56729;DHT22;42612;52.232;7.560;2023-02-15T08:11:24;8.10;55.90
56729;DHT22;42612;52.232;7.560;2023-02-15T08:14:06;8.10;56.10
56729;DHT22;42612;52.232;7.560;2023-02-15T08:16:41;8.20;56.30
56729;DHT22;42612;52.232;7.560;2023-02-15T08:19:28;8.20;56.10
56729;DHT22;42612;52.232;7.560;2023-02-15T08:21:57;8.20;56.70
56729;DHT22;42612;52.232;7.560;2023-02-15T08:24:27;8.30;56.20
56729;DHT22;42612;52.232;7.560;2023-02-15T08:26:54;8.30;56.20
56729;DHT22;42612;52.232;7.560;2023-02-15T08:29:23;8.30;56.20
56729;DHT22;42612;52.232;7.560;2023-02-15T08:31:53;8.40;56.20
56729;DHT22;42612;52.232;7.560;2023-02-15T08:34:21;8.40;56.20
56729;DHT22;42612;52.232;7.560;2023-02-15T08:36:46;8.40;56.30
56729;DHT22;42612;52.232;7.560;2023-02-15T08:39:14;8.50;56.50
56729;DHT22;42612;52.232;7.560;2023-02-15T08:41:43;8.50;56.50
56729;DHT22;42612;52.232;7.560;2023-02-15T08:44:10;8.60;56.60
56729;DHT22;42612;52.232;7.560;2023-02-15T08:46:38;8.60;56.70
56729;DHT22;42612;52.232;7.560;2023-02-15T08:49:06;8.70;56.60
56729;DHT22;42612;52.232;7.560;2023-02-15T08:51:35;8.70;56.40
56729;DHT22;42612;52.232;7.560;2023-02-15T08:54:05;8.80;56.60
56729;DHT22;42612;52.232;7.560;2023-02-15T08:56:36;8.80;56.50
56729;DHT22;42612;52.232;7.560;2023-02-15T08:59:03;8.90;56.50
56729;DHT22;42612;52.232;7.560;2023-02-15T09:01:31;8.90;56.50
56729;DHT22;42612;52.232;7.560;2023-02-15T09:04:05;9.00;56.60
56729;DHT22;42612;52.232;7.560;2023-02-15T09:06:38;9.00;56.50
56729;DHT22;42612;52.232;7.560;2023-02-15T09:09:05;9.00;56.20
56729;DHT22;42612;52.232;7.560;2023-02-15T09:11:42;9.10;56.10
56729;DHT22;42612;52.232;7.560;2023-02-15T09:14:14;9.20;56.20
56729;DHT22;42612;52.232;7.560;2023-02-15T09:16:46;9.10;56.10
56729;DHT22;42612;52.232;7.560;2023-02-15T09:19:15;9.20;56.20
56729;DHT22;42612;52.232;7.560;2023-02-15T09:21:42;9.20;56.20
56729;DHT22;42612;52.232;7.560;2023-02-15T09:24:11;9.20;56.30
56729;DHT22;42612;52.232;7.560;2023-02-15T09:26:40;9.20;56.20
56729;DHT22;42612;52.232;7.560;2023-02-15T09:29:08;9.30;56.20
56729;DHT22;42612;52.232;7.560;2023-02-15T09:31:40;9.30;56.20
56729;DHT22;42612;52.232;7.560;2023-02-15T09:34:12;9.30;56.30
56729;DHT22;42612;52.232;7.560;2023-02-15T09:36:40;9.40;56.40
56729;DHT22;42612;52.232;7.560;2023-02-15T09:39:15;9.40;56.40
56729;DHT22;42612;52.232;7.560;2023-02-15T09:53:28;9.60;56.20
56729;DHT22;42612;52.232;7.560;2023-02-15T10:07:38;9.80;56.30
56729;DHT22;42612;52.232;7.560;2023-02-15T10:10:44;9.90;56.10
56729;DHT22;42612;52.232;7.560;2023-02-15T10:13:28;10.00;56.20
56729;DHT22;42612;52.232;7.560;2023-02-15T10:16:19;10.00;56.30
56729;DHT22;42612;52.232;7.560;2023-02-15T10:19:30;10.10;56.50
56729;DHT22;42612;52.232;7.560;2023-02-15T10:22:30;10.20;56.40
56729;DHT22;42612;52.232;7.560;2023-02-15T10:25:36;10.30;56.30
56729;DHT22;42612;52.232;7.560;2023-02-15T10:28:06;10.40;56.40
56729;DHT22;42612;52.232;7.560;2023-02-15T10:30:51;10.40;56.20
56729;DHT22;42612;52.232;7.560;2023-02-15T10:33:39;10.50;56.20
56729;DHT22;42612;52.232;7.560;2023-02-15T10:50:30;11.00;56.00
56729;DHT22;42612;52.232;7.560;2023-02-15T10:53:13;11.10;56.00
56729;DHT22;42612;52.232;7.560;2023-02-15T10:56:05;11.20;56.00
56729;DHT22;42612;52.232;7.560;2023-02-15T10:58:54;11.30;56.20
56729;DHT22;42612;52.232;7.560;2023-02-15T11:06:58;11.60;56.10
56729;DHT22;42612;52.232;7.560;2023-02-15T11:09:36;11.70;55.80
56729;DHT22;42612;52.232;7.560;2023-02-15T11:12:08;11.80;55.60
56729;DHT22;42612;52.232;7.560;2023-02-15T11:14:45;11.90;55.70
56729;DHT22;42612;52.232;7.560;2023-02-15T11:17:17;12.00;55.40
56729;DHT22;42612;52.232;7.560;2023-02-15T11:20:07;12.10;55.30
56729;DHT22;42612;52.232;7.560;2023-02-15T11:22:38;12.20;54.90
56729;DHT22;42612;52.232;7.560;2023-02-15T11:25:16;12.30;55.40
56729;DHT22;42612;52.232;7.560;2023-02-15T11:27:46;12.40;55.00
56729;DHT22;42612;52.232;7.560;2023-02-15T11:30:17;12.50;55.20
56729;DHT22;42612;52.232;7.560;2023-02-15T11:32:47;12.60;55.10
56729;DHT22;42612;52.232;7.560;2023-02-15T11:38:02;12.80;54.70
56729;DHT22;42612;52.232;7.560;2023-02-15T11:43:21;12.90;54.40
56729;DHT22;42612;52.232;7.560;2023-02-15T11:45:52;13.00;54.90
56729;DHT22;42612;52.232;7.560;2023-02-15T11:48:17;13.10;54.40
56729;DHT22;42612;52.232;7.560;2023-02-15T11:50:44;13.10;54.20
56729;DHT22;42612;52.232;7.560;2023-02-15T11:53:21;13.20;54.00
56729;DHT22;42612;52.232;7.560;2023-02-15T11:55:50;13.30;53.60
56729;DHT22;42612;52.232;7.560;2023-02-15T11:58:21;13.30;53.90
56729;DHT22;42612;52.232;7.560;2023-02-15T12:04:01;13.50;53.60
56729;DHT22;42612;52.232;7.560;2023-02-15T12:06:34;13.50;53.00
56729;DHT22;42612;52.232;7.560;2023-02-15T12:12:30;13.70;53.40
56729;DHT22;42612;52.232;7.560;2023-02-15T12:15:00;13.80;52.90
56729;DHT22;42612;52.232;7.560;2023-02-15T12:17:31;13.80;53.40
56729;DHT22;42612;52.232;7.560;2023-02-15T12:22:51;14.00;54.00
56729;DHT22;42612;52.232;7.560;2023-02-15T12:25:23;14.10;53.00
56729;DHT22;42612;52.232;7.560;2023-02-15T12:27:51;14.20;53.00
56729;DHT22;42612;52.232;7.560;2023-02-15T12:33:29;14.30;52.80
56729;DHT22;42612;52.232;7.560;2023-02-15T12:36:17;14.40;52.40
56729;DHT22;42612;52.232;7.560;2023-02-15T12:41:43;14.50;52.00
56729;DHT22;42612;52.232;7.560;2023-02-15T12:46:56;14.70;52.30
56729;DHT22;42612;52.232;7.560;2023-02-15T12:49:23;14.70;51.90
56729;DHT22;42612;52.232;7.560;2023-02-15T12:52:03;14.80;52.30
56729;DHT22;42612;52.232;7.560;2023-02-15T12:54:41;14.90;51.70
56729;DHT22;42612;52.232;7.560;2023-02-15T12:57:24;14.90;51.70
56729;DHT22;42612;52.232;7.560;2023-02-15T13:00:11;15.00;51.60
56729;DHT22;42612;52.232;7.560;2023-02-15T13:02:49;15.10;52.00
56729;DHT22;42612;52.232;7.560;2023-02-15T13:05:37;15.20;52.20
56729;DHT22;42612;52.232;7.560;2023-02-15T13:08:14;15.30;51.60
56729;DHT22;42612;52.232;7.560;2023-02-15T13:16:33;15.50;51.00
56729;DHT22;42612;52.232;7.560;2023-02-15T13:19:50;15.60;51.10
56729;DHT22;42612;52.232;7.560;2023-02-15T13:22:02;15.70;50.90
56729;DHT22;42612;52.232;7.560;2023-02-15T13:24:39;15.90;51.50
56729;DHT22;42612;52.232;7.560;2023-02-15T13:27:18;15.90;50.90
56729;DHT22;42612;52.232;7.560;2023-02-15T13:29:55;15.90;50.40
56729;DHT22;42612;52.232;7.560;2023-02-15T13:32:35;16.00;50.60
56729;DHT22;42612;52.232;7.560;2023-02-15T13:35:04;16.10;50.40
56729;DHT22;42612;52.232;7.560;2023-02-15T13:37:44;16.10;51.00
56729;DHT22;42612;52.232;7.560;2023-02-15T13:40:41;16.20;50.70
56729;DHT22;42612;52.232;7.560;2023-02-15T13:49:32;16.50;49.60
56729;DHT22;42612;52.232;7.560;2023-02-15T13:52:24;16.60;50.50
56729;DHT22;42612;52.232;7.560;2023-02-15T13:58:22;16.80;49.80
56729;DHT22;42612;52.232;7.560;2023-02-15T14:01:26;16.80;48.60
56729;DHT22;42612;52.232;7.560;2023-02-15T14:13:10;16.90;47.90
56729;DHT22;42612;52.232;7.560;2023-02-15T14:16:20;17.00;48.90
56729;DHT22;42612;52.232;7.560;2023-02-15T14:27:45;17.10;48.30
56729;DHT22;42612;52.232;7.560;2023-02-15T14:30:23;17.20;48.00
56729;DHT22;42612;52.232;7.560;2023-02-15T14:32:55;17.20;47.90
56729;DHT22;42612;52.232;7.560;2023-02-15T14:35:28;17.20;48.30
56729;DHT22;42612;52.232;7.560;2023-02-15T14:41:14;17.20;47.20
56729;DHT22;42612;52.232;7.560;2023-02-15T14:44:29;17.20;47.60
56729;DHT22;42612;52.232;7.560;2023-02-15T14:47:08;17.20;47.00
56729;DHT22;42612;52.232;7.560;2023-02-15T14:49:38;17.20;48.00
56729;DHT22;42612;52.232;7.560;2023-02-15T14:52:06;17.20;48.20
56729;DHT22;42612;52.232;7.560;2023-02-15T15:05:06;17.10;47.80
56729;DHT22;42612;52.232;7.560;2023-02-15T15:07:54;17.10;46.90
56729;DHT22;42612;52.232;7.560;2023-02-15T15:15:33;16.90;47.60
56729;DHT22;42612;52.232;7.560;2023-02-15T15:18:05;16.90;47.00
56729;DHT22;42612;52.232;7.560;2023-02-15T15:20:47;16.80;48.30
56729;DHT22;42612;52.232;7.560;2023-02-15T15:26:48;16.70;47.60
56729;DHT22;42612;52.232;7.560;2023-02-15T15:31:20;16.60;47.60
56729;DHT22;42612;52.232;7.560;2023-02-15T15:37:32;16.40;47.00
56729;DHT22;42612;52.232;7.560;2023-02-15T15:46:37;16.20;47.20
56729;DHT22;42612;52.232;7.560;2023-02-15T15:49:14;16.20;47.40
56729;DHT22;42612;52.232;7.560;2023-02-15T15:51:42;16.10;47.70
56729;DHT22;42612;52.232;7.560;2023-02-15T15:54:15;16.00;47.70
56729;DHT22;42612;52.232;7.560;2023-02-15T15:56:46;16.00;47.50
56729;DHT22;42612;52.232;7.560;2023-02-15T15:59:28;15.90;47.70
56729;DHT22;42612;52.232;7.560;2023-02-15T16:02:04;15.80;47.60
56729;DHT22;42612;52.232;7.560;2023-02-15T16:04:32;15.80;47.50
56729;DHT22;42612;52.232;7.560;2023-02-15T16:10:00;15.70;47.30
56729;DHT22;42612;52.232;7.560;2023-02-15T16:12:30;15.60;47.20
56729;DHT22;42612;52.232;7.560;2023-02-15T16:14:57;15.60;47.80
56729;DHT22;42612;52.232;7.560;2023-02-15T16:17:29;15.60;47.80
56729;DHT22;42612;52.232;7.560;2023-02-15T16:20:06;15.50;47.60
56729;DHT22;42612;52.232;7.560;2023-02-15T16:22:45;15.40;47.30
56729;DHT22;42612;52.232;7.560;2023-02-15T16:28:07;15.30;48.00
56729;DHT22;42612;52.232;7.560;2023-02-15T16:30:35;15.30;47.50
56729;DHT22;42612;52.232;7.560;2023-02-15T16:33:08;15.30;47.70
56729;DHT22;42612;52.232;7.560;2023-02-15T16:35:56;15.20;47.60
56729;DHT22;42612;52.232;7.560;2023-02-15T16:41:08;15.10;47.40
56729;DHT22;42612;52.232;7.560;2023-02-15T16:43:36;15.20;47.90
56729;DHT22;42612;52.232;7.560;2023-02-15T16:46:15;15.10;47.80
56729;DHT22;42612;52.232;7.560;2023-02-15T16:48:46;15.00;47.50
56729;DHT22;42612;52.232;7.560;2023-02-15T16:51:25;15.00;47.80
56729;DHT22;42612;52.232;7.560;2023-02-15T16:53:54;15.00;47.60
56729;DHT22;42612;52.232;7.560;2023-02-15T16:56:26;15.00;47.90
56729;DHT22;42612;52.232;7.560;2023-02-15T16:58:54;14.90;47.70
56729;DHT22;42612;52.232;7.560;2023-02-15T17:01:24;14.90;47.90
56729;DHT22;42612;52.232;7.560;2023-02-15T17:04:31;14.90;47.90
56729;DHT22;42612;52.232;7.560;2023-02-15T17:07:04;14.80;47.60
56729;DHT22;42612;52.232;7.560;2023-02-15T17:09:54;14.80;47.80
56729;DHT22;42612;52.232;7.560;2023-02-15T17:15:33;14.70;47.80
56729;DHT22;42612;52.232;7.560;2023-02-15T17:20:45;14.60;48.10
56729;DHT22;42612;52.232;7.560;2023-02-15T17:25:57;14.60;48.10
56729;DHT22;42612;52.232;7.560;2023-02-15T17:28:26;14.50;48.30
56729;DHT22;42612;52.232;7.560;2023-02-15T17:30:54;14.40;48.30
56729;DHT22;42612;52.232;7.560;2023-02-15T17:36:19;14.30;48.10
56729;DHT22;42612;52.232;7.560;2023-02-15T17:38:59;14.30;48.10
56729;DHT22;42612;52.232;7.560;2023-02-15T17:41:29;14.30;48.20
56729;DHT22;42612;52.232;7.560;2023-02-15T17:43:56;14.30;48.40
56729;DHT22;42612;52.232;7.560;2023-02-15T17:46:23;14.30;48.40
56729;DHT22;42612;52.232;7.560;2023-02-15T17:48:52;14.30;48.50
56729;DHT22;42612;52.232;7.560;2023-02-15T17:51:20;14.20;48.40
56729;DHT22;42612;52.232;7.560;2023-02-15T17:53:47;14.20;48.50
56729;DHT22;42612;52.232;7.560;2023-02-15T17:56:36;14.20;48.60
56729;DHT22;42612;52.232;7.560;2023-02-15T17:59:03;14.20;48.50
56729;DHT22;42612;52.232;7.560;2023-02-15T18:01:36;14.20;48.70
56729;DHT22;42612;52.232;7.560;2023-02-15T18:04:24;14.10;48.60
56729;DHT22;42612;52.232;7.560;2023-02-15T18:07:09;14.10;48.60
56729;DHT22;42612;52.232;7.560;2023-02-15T18:09:55;14.10;48.70
56729;DHT22;42612;52.232;7.560;2023-02-15T18:12:39;14.00;48.70
56729;DHT22;42612;52.232;7.560;2023-02-15T18:15:05;14.00;48.80
56729;DHT22;42612;52.232;7.560;2023-02-15T18:17:38;14.00;48.90
56729;DHT22;42612;52.232;7.560;2023-02-15T18:22:42;13.90;48.90
56729;DHT22;42612;52.232;7.560;2023-02-15T18:25:13;13.90;49.00
56729;DHT22;42612;52.232;7.560;2023-02-15T18:27:41;13.80;49.10
56729;DHT22;42612;52.232;7.560;2023-02-15T18:30:07;13.80;49.10
56729;DHT22;42612;52.232;7.560;2023-02-15T18:32:37;13.70;49.10
56729;DHT22;42612;52.232;7.560;2023-02-15T18:35:05;13.70;49.10
56729;DHT22;42612;52.232;7.560;2023-02-15T18:37:32;13.70;49.10
56729;DHT22;42612;52.232;7.560;2023-02-15T18:39:59;13.70;49.20
56729;DHT22;42612;52.232;7.560;2023-02-15T18:42:30;13.60;49.10
56729;DHT22;42612;52.232;7.560;2023-02-15T18:47:51;13.50;49.10
56729;DHT22;42612;52.232;7.560;2023-02-15T18:50:20;13.50;49.10
56729;DHT22;42612;52.232;7.560;2023-02-15T18:52:46;13.50;49.10
56729;DHT22;42612;52.232;7.560;2023-02-15T18:57:45;13.40;49.10
56729;DHT22;42612;52.232;7.560;2023-02-15T19:00:18;13.40;49.20
56729;DHT22;42612;52.232;7.560;2023-02-15T19:02:45;13.30;49.20
56729;DHT22;42612;52.232;7.560;2023-02-15T19:05:12;13.40;49.30
56729;DHT22;42612;52.232;7.560;2023-02-15T19:07:38;13.30;49.30
56729;DHT22;42612;52.232;7.560;2023-02-15T19:10:06;13.30;49.40
56729;DHT22;42612;52.232;7.560;2023-02-15T19:12:33;13.30;49.50
56729;DHT22;42612;52.232;7.560;2023-02-15T19:14:59;13.30;49.60
56729;DHT22;42612;52.232;7.560;2023-02-15T19:17:25;13.30;49.50
56729;DHT22;42612;52.232;7.560;2023-02-15T19:19:51;13.30;49.50
56729;DHT22;42612;52.232;7.560;2023-02-15T19:22:30;13.30;49.50
56729;DHT22;42612;52.232;7.560;2023-02-15T19:25:00;13.30;49.20